createdAt,value
2022-11-13T00:01:21.139Z,101139.91
2022-11-13T00:03:49.249Z,101142.13
2022-11-13T00:06:18.338Z,101131.41
2022-11-13T00:08:46.802Z,101135.72
2022-11-13T00:11:18.365Z,101139.84
2022-11-13T00:13:47.037Z,101144.75
2022-11-13T00:16:18.619Z,101133.22
2022-11-13T00:18:47.400Z,101145.53
2022-11-13T00:21:18.295Z,101136.50
2022-11-13T00:23:46.697Z,101135.00
2022-11-13T00:26:17.264Z,101135.41
2022-11-13T00:28:47.046Z,101128.69
2022-11-13T00:31:17.115Z,101141.75
2022-11-13T00:34:09.194Z,101139.31
2022-11-13T00:36:33.289Z,101139.41
2022-11-13T00:39:01.368Z,101139.13
2022-11-13T00:41:29.553Z,101127.78
2022-11-13T00:43:57.828Z,101133.72
2022-11-13T00:46:27.329Z,101134.50
2022-11-13T00:48:55.361Z,101136.19
2022-11-13T00:51:24.094Z,101129.81
2022-11-13T00:53:52.080Z,101131.22
2022-11-13T00:56:20.267Z,101131.41
2022-11-13T00:58:48.549Z,101125.97
2022-11-13T01:01:19.773Z,101131.41
2022-11-13T01:03:49.202Z,101130.31
2022-11-13T01:06:21.150Z,101129.00
2022-11-13T01:08:49.761Z,101136.69
2022-11-13T01:11:20.608Z,101136.44
2022-11-13T01:13:50.927Z,101125.00
2022-11-13T01:16:20.936Z,101137.50
2022-11-13T01:18:50.785Z,101129.63
2022-11-13T01:21:20.729Z,101134.59
2022-11-13T01:23:48.957Z,101130.91
2022-11-13T01:26:19.322Z,101130.59
2022-11-13T01:28:48.443Z,101133.63
2022-11-13T01:31:18.893Z,101127.19
2022-11-13T01:33:48.021Z,101123.09
2022-11-13T01:36:18.883Z,101123.50
2022-11-13T01:38:48.835Z,101115.16
2022-11-13T01:41:23.336Z,101119.34
2022-11-13T01:43:53.422Z,101115.66
2022-11-13T01:46:28.301Z,101109.94
2022-11-13T01:49:03.032Z,101109.41
2022-11-13T01:51:37.011Z,101111.13
2022-11-13T01:54:11.014Z,101112.16
2022-11-13T01:56:39.070Z,101103.72
2022-11-13T01:59:12.924Z,101108.94
2022-11-13T02:01:41.307Z,101108.75
2022-11-13T02:04:09.446Z,101109.34
2022-11-13T02:06:44.301Z,101110.03
2022-11-13T02:09:14.109Z,101109.34
2022-11-13T02:11:43.119Z,101112.31
2022-11-13T02:14:13.241Z,101114.25
2022-11-13T02:16:43.801Z,101112.06
2022-11-13T02:19:18.392Z,101111.97
2022-11-13T02:21:55.665Z,101107.44
2022-11-13T02:24:29.509Z,101105.00
2022-11-13T02:27:02.821Z,101102.13
2022-11-13T02:29:30.871Z,101099.72
2022-11-13T02:31:59.229Z,101097.91
2022-11-13T02:34:27.286Z,101092.41
2022-11-13T02:36:55.409Z,101093.38
2022-11-13T02:39:23.860Z,101097.81
2022-11-13T02:41:53.232Z,101098.50
2022-11-13T02:44:21.217Z,101103.72
2022-11-13T02:46:49.229Z,101099.69
2022-11-13T02:49:17.279Z,101097.69
2022-11-13T02:51:45.393Z,101100.31
2022-11-13T02:54:16.864Z,101102.13
2022-11-13T02:56:45.456Z,101099.63
2022-11-13T02:59:14.856Z,101095.94
2022-11-13T03:01:42.920Z,101095.72
2022-11-13T03:04:11.560Z,101105.44
2022-11-13T03:06:40.027Z,101102.56
2022-11-13T03:09:08.118Z,101102.16
2022-11-13T03:11:36.201Z,101088.44
2022-11-13T03:14:04.165Z,101094.72
2022-11-13T03:16:33.488Z,101093.13
2022-11-13T03:19:03.322Z,101091.13
2022-11-13T03:21:32.193Z,101100.16
2022-11-13T03:24:00.294Z,101093.16
2022-11-13T03:26:28.823Z,101091.53
2022-11-13T03:28:57.529Z,101095.63
2022-11-13T03:31:25.582Z,101091.44
2022-11-13T03:33:55.529Z,101087.03
2022-11-13T03:36:23.630Z,101089.16
2022-11-13T03:38:51.693Z,101098.47
2022-11-13T03:41:19.723Z,101090.13
2022-11-13T03:43:47.777Z,101088.13
2022-11-13T03:46:15.842Z,101091.44
2022-11-13T03:48:43.818Z,101087.53
2022-11-13T03:51:13.539Z,101097.78
2022-11-13T03:53:41.746Z,101097.34
2022-11-13T03:56:09.815Z,101092.13
2022-11-13T03:58:40.259Z,101089.13
2022-11-13T04:01:08.644Z,101087.03
2022-11-13T04:03:37.136Z,101081.91
2022-11-13T04:06:05.462Z,101090.91
2022-11-13T04:08:34.956Z,101077.28
2022-11-13T04:11:13.978Z,101086.00
2022-11-13T04:13:42.021Z,101089.94
2022-11-13T04:16:10.353Z,101083.50
2022-11-13T04:18:38.388Z,101082.72
2022-11-13T04:21:06.949Z,101084.94
2022-11-13T04:23:36.462Z,101089.84
2022-11-13T04:26:04.641Z,101087.94
2022-11-13T04:28:32.815Z,101091.16
2022-11-13T04:31:01.038Z,101093.13
2022-11-13T04:33:29.142Z,101094.63
2022-11-13T04:35:57.282Z,101106.06
2022-11-13T04:38:25.426Z,101102.16
2022-11-13T04:41:15.517Z,101094.56
2022-11-13T04:43:42.524Z,101116.59
2022-11-13T04:46:10.581Z,101111.31
2022-11-13T04:48:38.623Z,101105.91
2022-11-13T04:51:07.462Z,101108.88
2022-11-13T04:53:36.005Z,101108.59
2022-11-13T04:56:05.980Z,101108.59
2022-11-13T04:58:33.989Z,101115.97
2022-11-13T05:01:01.989Z,101109.88
2022-11-13T05:03:30.082Z,101103.97
2022-11-13T05:06:04.374Z,101108.78
2022-11-13T05:08:32.419Z,101108.34
2022-11-13T05:11:00.524Z,101109.88
2022-11-13T05:13:32.208Z,101102.66
2022-11-13T05:16:05.007Z,101113.88
2022-11-13T05:18:34.236Z,101101.38
2022-11-13T05:21:02.640Z,101102.34
2022-11-13T05:23:30.773Z,101098.75
2022-11-13T05:26:04.044Z,101100.34
2022-11-13T05:28:33.770Z,101108.47
2022-11-13T05:31:06.304Z,101102.56
2022-11-13T05:33:34.994Z,101107.28
2022-11-13T05:36:03.773Z,101117.00
2022-11-13T05:38:32.361Z,101110.19
2022-11-13T05:41:04.881Z,101122.91
2022-11-13T05:43:34.881Z,101120.81
2022-11-13T05:46:04.957Z,101125.13
2022-11-13T05:48:33.378Z,101117.41
2022-11-13T05:51:05.114Z,101111.75
2022-11-13T05:53:33.989Z,101121.28
2022-11-13T05:56:02.839Z,101112.00
2022-11-13T05:58:31.989Z,101115.28
2022-11-13T06:01:10.629Z,101126.41
2022-11-13T06:03:39.493Z,101130.25
2022-11-13T06:06:08.990Z,101123.91
2022-11-13T06:08:37.372Z,101136.63
2022-11-13T06:11:08.142Z,101133.81
2022-11-13T06:13:36.615Z,101135.72
2022-11-13T06:16:06.725Z,101142.00
2022-11-13T06:18:37.135Z,101144.81
2022-11-13T06:21:06.597Z,101136.81
2022-11-13T06:23:35.912Z,101131.22
2022-11-13T06:26:05.638Z,101132.94
2022-11-13T06:28:34.661Z,101127.31
2022-11-13T06:31:04.818Z,101132.72
2022-11-13T06:33:33.402Z,101144.16
2022-11-13T06:36:05.340Z,101145.63
2022-11-13T06:38:33.926Z,101143.16
2022-11-13T06:41:02.894Z,101144.44
2022-11-13T06:43:31.487Z,101138.91
2022-11-13T06:46:00.679Z,101131.28
2022-11-13T06:48:28.869Z,101138.81
2022-11-13T06:50:57.076Z,101143.13
2022-11-13T06:53:26.550Z,101131.59
2022-11-13T06:55:54.737Z,101118.53
2022-11-13T06:58:22.887Z,101123.66
2022-11-13T07:00:51.241Z,101124.94
2022-11-13T07:03:20.557Z,101125.44
2022-11-13T07:05:49.900Z,101120.38
2022-11-13T07:08:18.476Z,101125.69
2022-11-13T07:10:54.605Z,101123.66
2022-11-13T07:13:22.820Z,101124.53
2022-11-13T07:15:50.887Z,101123.91
2022-11-13T07:18:23.742Z,101117.59
2022-11-13T07:20:52.124Z,101117.34
2022-11-13T07:23:20.709Z,101114.13
2022-11-13T07:25:50.266Z,101112.09
2022-11-13T07:28:18.293Z,101107.69
2022-11-13T07:30:46.575Z,101099.59
2022-11-13T07:33:15.720Z,101106.16
2022-11-13T07:35:43.836Z,101114.97
2022-11-13T07:38:12.140Z,101110.44
2022-11-13T07:40:40.125Z,101110.47
2022-11-13T07:43:09.842Z,101109.38
2022-11-13T07:45:37.946Z,101106.78
2022-11-13T07:48:07.854Z,101105.81
2022-11-13T07:50:38.838Z,101111.44
2022-11-13T07:53:08.435Z,101108.84
2022-11-13T07:55:37.341Z,101108.97
2022-11-13T07:58:06.739Z,101114.25
2022-11-13T08:00:37.040Z,101120.34
2022-11-13T08:03:09.640Z,101113.47
2022-11-13T08:05:38.746Z,101116.34
2022-11-13T08:08:07.720Z,101121.19
2022-11-13T08:10:37.412Z,101122.31
2022-11-13T08:13:08.188Z,101111.81
2022-11-13T08:15:37.819Z,101114.22
2022-11-13T08:18:06.989Z,101111.22
2022-11-13T08:20:35.510Z,101114.22
2022-11-13T08:23:05.361Z,101109.78
2022-11-13T08:25:34.753Z,101121.31
2022-11-13T08:28:02.854Z,101117.81
2022-11-13T08:30:31.028Z,101116.81
2022-11-13T08:33:00.552Z,101121.00
2022-11-13T08:35:29.731Z,101116.81
2022-11-13T08:38:03.151Z,101113.47
2022-11-13T08:40:31.618Z,101110.75
2022-11-13T08:43:03.954Z,101117.91
2022-11-13T08:45:32.774Z,101111.53
2022-11-13T08:48:02.857Z,101111.22
2022-11-13T08:50:32.291Z,101115.34
2022-11-13T08:53:02.274Z,101109.13
2022-11-13T08:55:30.641Z,101114.53
2022-11-13T08:58:00.370Z,101109.25
2022-11-13T09:00:29.334Z,101110.53
2022-11-13T09:02:58.473Z,101121.91
2022-11-13T09:05:28.510Z,101115.72
2022-11-13T09:07:58.813Z,101112.50
2022-11-13T09:10:27.725Z,101111.38
2022-11-13T09:12:59.507Z,101106.09
2022-11-13T09:15:27.567Z,101098.09
2022-11-13T09:17:59.122Z,101098.09
2022-11-13T09:20:28.826Z,101097.78
2022-11-13T09:23:00.569Z,101092.38
2022-11-13T09:25:35.810Z,101098.06
2022-11-13T09:28:06.106Z,101089.00
2022-11-13T09:30:34.435Z,101083.06
2022-11-13T09:33:03.133Z,101086.75
2022-11-13T09:35:37.152Z,101078.47
2022-11-13T09:38:11.111Z,101077.38
2022-11-13T09:40:45.410Z,101083.16
2022-11-13T09:43:25.638Z,101066.63
2022-11-13T09:45:59.473Z,101068.09
2022-11-13T09:48:36.709Z,101064.38
2022-11-13T09:51:14.526Z,101052.13
2022-11-13T09:53:43.021Z,101050.19
2022-11-13T09:56:28.587Z,101043.53
2022-11-13T09:59:16.673Z,101046.66
2022-11-13T10:01:53.930Z,101042.06
2022-11-13T10:04:34.839Z,101053.47
2022-11-13T10:07:15.588Z,101049.88
2022-11-13T10:09:59.725Z,101051.94
2022-11-13T10:12:30.145Z,101046.88
2022-11-13T10:15:03.330Z,101041.34
2022-11-13T10:17:40.467Z,101042.53
2022-11-13T10:20:15.409Z,101043.41
2022-11-13T10:22:51.045Z,101038.47
2022-11-13T10:25:22.064Z,101028.94
2022-11-13T10:27:55.382Z,101030.56
2022-11-13T10:30:23.567Z,101026.16
2022-11-13T10:32:52.471Z,101025.50
2022-11-13T10:35:56.439Z,101019.22
2022-11-13T10:38:33.664Z,101019.69
2022-11-13T10:41:13.216Z,101012.03
2022-11-13T10:43:53.541Z,101016.47
2022-11-13T10:46:23.425Z,101011.59
2022-11-13T10:48:51.591Z,101003.28
2022-11-13T10:51:25.764Z,101002.19
2022-11-13T10:53:56.442Z,100989.78
2022-11-13T10:56:29.721Z,100985.69
2022-11-13T10:59:03.164Z,100983.31
2022-11-13T11:01:31.720Z,100983.75
2022-11-13T11:03:59.760Z,100979.22
2022-11-13T11:07:17.671Z,100978.09
2022-11-13T11:09:29.796Z,100972.94
2022-11-13T11:12:18.920Z,100974.31
2022-11-13T11:15:11.472Z,100970.53
2022-11-13T11:17:47.628Z,100968.53
2022-11-13T11:20:25.015Z,100958.28
2022-11-13T11:22:59.961Z,100962.72
2022-11-13T11:25:36.830Z,100962.56
2022-11-13T11:28:12.846Z,100961.56
2022-11-13T11:30:48.596Z,100958.28
2022-11-13T11:33:21.335Z,100948.06
2022-11-13T11:35:55.367Z,100954.88
2022-11-13T11:38:28.757Z,100943.97
2022-11-13T11:41:07.642Z,100955.22
2022-11-13T11:43:44.533Z,100943.03
2022-11-13T11:46:14.551Z,100942.59
2022-11-13T11:48:42.731Z,100938.72
2022-11-13T11:51:20.997Z,100926.34
2022-11-13T11:53:58.934Z,100928.06
2022-11-13T11:56:35.205Z,100928.16
2022-11-13T11:59:31.863Z,100924.19
2022-11-13T12:02:29.965Z,100921.25
2022-11-13T12:05:23.457Z,100921.00
2022-11-13T12:08:08.831Z,100919.41
2022-11-13T12:10:44.436Z,100911.66
2022-11-13T12:13:27.261Z,100921.00
2022-11-13T12:16:03.431Z,100906.09
2022-11-13T12:18:40.807Z,100899.28
2022-11-13T12:21:22.429Z,100901.44
2022-11-13T12:24:03.800Z,100904.16
2022-11-13T12:26:38.901Z,100904.53
2022-11-13T12:29:22.396Z,100900.88
2022-11-13T12:32:04.298Z,100898.69
2022-11-13T12:34:39.447Z,100900.75
2022-11-13T12:37:12.915Z,100897.72
2022-11-13T12:39:47.622Z,100897.25
2022-11-13T12:42:23.837Z,100892.25
2022-11-13T12:45:03.428Z,100886.53
2022-11-13T12:47:31.555Z,100892.81
2022-11-13T12:50:01.194Z,100887.09
2022-11-13T12:52:29.384Z,100886.88
2022-11-13T12:55:10.496Z,100873.59
2022-11-13T12:57:49.475Z,100888.47
2022-11-13T13:00:28.442Z,100882.41
2022-11-13T13:03:21.731Z,100884.81
2022-11-13T13:06:13.517Z,100884.81
2022-11-13T13:08:55.247Z,100885.25
2022-11-13T13:11:32.784Z,100883.47
2022-11-13T13:14:19.784Z,100877.53
2022-11-13T13:16:49.343Z,100879.88
2022-11-13T13:19:28.685Z,100874.34
2022-11-13T13:21:58.174Z,100873.66
2022-11-13T13:24:35.836Z,100873.72
2022-11-13T13:27:21.667Z,100874.19
2022-11-13T13:29:49.683Z,100872.50
2022-11-13T13:32:24.276Z,100870.66
2022-11-13T13:35:03.111Z,100866.09
2022-11-13T13:37:38.238Z,100863.09
2022-11-13T13:40:19.216Z,100868.38
2022-11-13T13:43:02.957Z,100863.72
2022-11-13T13:45:42.347Z,100867.41
2022-11-13T13:48:13.678Z,100863.41
2022-11-13T13:50:46.442Z,100861.47
2022-11-13T13:53:18.396Z,100866.41
2022-11-13T13:55:49.841Z,100874.75
2022-11-13T13:58:24.370Z,100858.06
2022-11-13T14:01:17.840Z,100862.41
2022-11-13T14:03:48.598Z,100853.56
2022-11-13T14:06:22.308Z,100850.41
2022-11-13T14:08:50.701Z,100854.38
2022-11-13T14:11:21.264Z,100856.56
2022-11-13T14:13:49.650Z,100852.59
2022-11-13T14:16:17.976Z,100860.91
2022-11-13T14:18:46.147Z,100854.88
2022-11-13T14:21:25.031Z,100858.97
2022-11-13T14:23:55.450Z,100853.28
2022-11-13T14:26:24.032Z,100855.81
2022-11-13T14:28:56.607Z,100856.03
2022-11-13T14:31:30.062Z,100856.47
2022-11-13T14:34:01.291Z,100853.50
2022-11-13T14:36:33.246Z,100853.59
2022-11-13T14:39:01.658Z,100855.31
2022-11-13T14:41:35.243Z,100861.66
2022-11-13T14:44:03.887Z,100851.16
2022-11-13T14:46:35.730Z,100852.38
2022-11-13T14:49:05.241Z,100851.19
2022-11-13T14:51:35.799Z,100855.63
2022-11-13T14:54:08.911Z,100856.50
2022-11-13T14:56:38.749Z,100848.06
2022-11-13T14:59:16.869Z,100851.66
2022-11-13T15:01:55.165Z,100860.03
2022-11-13T15:04:23.348Z,100847.28
2022-11-13T15:06:56.070Z,100845.09
2022-11-13T15:09:26.576Z,100845.97
2022-11-13T15:11:55.009Z,100845.19
2022-11-13T15:14:24.131Z,100842.00
2022-11-13T15:16:54.148Z,100847.69
2022-11-13T15:19:34.574Z,100853.00
2022-11-13T15:24:52.705Z,100850.94
2022-11-13T15:27:21.201Z,100846.81
2022-11-13T15:29:49.197Z,100852.41
2022-11-13T15:32:17.371Z,100851.47
2022-11-13T15:34:45.689Z,100847.34
2022-11-13T15:37:17.331Z,100848.75
2022-11-13T15:39:45.470Z,100855.44
2022-11-13T15:42:16.602Z,100855.44
2022-11-13T15:44:44.785Z,100843.97
2022-11-13T15:47:28.975Z,100842.59
2022-11-13T15:50:13.052Z,100848.69
2022-11-13T15:52:46.680Z,100854.47
2022-11-13T15:55:33.402Z,100846.19
2022-11-13T15:58:01.879Z,100851.13
2022-11-13T16:00:30.443Z,100850.81
2022-11-13T16:02:59.380Z,100851.50
2022-11-13T16:05:29.595Z,100853.44
2022-11-13T16:07:59.472Z,100852.03
2022-11-13T16:10:27.751Z,100857.78
2022-11-13T16:12:56.676Z,100859.06
2022-11-13T16:15:24.716Z,100855.09
2022-11-13T16:17:58.191Z,100859.25
2022-11-13T16:20:26.692Z,100855.88
2022-11-13T16:22:55.083Z,100855.41
2022-11-13T16:25:25.273Z,100849.03
2022-11-13T16:27:53.809Z,100853.66
2022-11-13T16:30:24.931Z,100862.59
2022-11-13T16:32:53.043Z,100858.59
2022-11-13T16:35:21.803Z,100871.19
2022-11-13T16:37:49.806Z,100871.19
2022-11-13T16:40:26.034Z,100862.41
2022-11-13T16:42:54.854Z,100869.22
2022-11-13T16:45:23.482Z,100873.22
2022-11-13T16:47:51.923Z,100869.22
2022-11-13T16:50:24.076Z,100866.97
2022-11-13T16:52:52.679Z,100863.78
2022-11-13T16:55:20.748Z,100869.50
2022-11-13T16:57:50.375Z,100859.59
2022-11-13T17:00:20.711Z,100871.72
2022-11-13T17:02:51.606Z,100876.31
2022-11-13T17:05:20.988Z,100874.53
2022-11-13T17:07:50.909Z,100869.88
2022-11-13T17:10:36.059Z,100869.72
2022-11-13T17:13:06.543Z,100871.78
2022-11-13T17:15:34.609Z,100874.78
2022-11-13T17:18:03.113Z,100874.66
2022-11-13T17:20:32.368Z,100882.59
2022-11-13T17:23:00.452Z,100867.41
2022-11-13T17:25:29.752Z,100874.59
2022-11-13T17:27:57.742Z,100880.63
2022-11-13T17:30:27.129Z,100874.72
2022-11-13T17:32:55.103Z,100877.88
2022-11-13T17:35:23.420Z,100875.47
2022-11-13T17:37:51.505Z,100870.69
2022-11-13T17:40:20.727Z,100883.53
2022-11-13T17:42:49.657Z,100881.13
2022-11-13T17:45:17.796Z,100881.00
2022-11-13T17:47:47.233Z,100873.88
2022-11-13T17:50:15.528Z,100876.25
2022-11-13T17:52:43.684Z,100874.63
2022-11-13T17:55:14.117Z,100875.38
2022-11-13T17:57:42.263Z,100866.00
2022-11-13T18:00:11.577Z,100856.25
2022-11-13T18:02:40.155Z,100860.19
2022-11-13T18:05:10.191Z,100859.38
2022-11-13T18:07:40.234Z,100861.91
2022-11-13T18:10:11.289Z,100854.84
2022-11-13T18:12:39.528Z,100854.38
2022-11-13T18:15:08.358Z,100855.00
2022-11-13T18:17:36.471Z,100852.53
2022-11-13T18:20:04.808Z,100847.34
2022-11-13T18:22:34.251Z,100847.47
2022-11-13T18:25:03.408Z,100846.25
2022-11-13T18:27:31.851Z,100848.16
2022-11-13T18:29:59.911Z,100848.75
2022-11-13T18:32:28.594Z,100847.41
2022-11-13T18:34:56.714Z,100847.41
2022-11-13T18:37:24.767Z,100842.25
2022-11-13T18:39:54.400Z,100846.13
2022-11-13T18:42:26.323Z,100840.59
2022-11-13T18:44:54.772Z,100842.00
2022-11-13T18:47:23.614Z,100847.59
2022-11-13T18:49:52.590Z,100843.28
2022-11-13T18:52:20.646Z,100836.91
2022-11-13T18:54:48.820Z,100847.84
2022-11-13T18:57:18.344Z,100840.03
2022-11-13T18:59:46.472Z,100839.84
2022-11-13T19:02:14.766Z,100837.53
2022-11-13T19:04:42.875Z,100842.03
2022-11-13T19:07:12.545Z,100849.44
2022-11-13T19:09:50.496Z,100837.13
2022-11-13T19:12:20.047Z,100838.66
2022-11-13T19:14:48.151Z,100837.66
2022-11-13T19:17:16.341Z,100841.84
2022-11-13T19:19:44.735Z,100839.84
2022-11-13T19:22:12.887Z,100840.53
2022-11-13T19:24:41.045Z,100843.34
2022-11-13T19:27:09.204Z,100839.34
2022-11-13T19:29:39.781Z,100837.44
2022-11-13T19:32:07.891Z,100839.56
2022-11-13T19:34:36.106Z,100841.94
2022-11-13T19:37:04.252Z,100837.81
2022-11-13T19:39:34.668Z,100837.44
2022-11-13T19:42:02.815Z,100844.63
2022-11-13T19:44:30.947Z,100833.72
2022-11-13T19:47:00.454Z,100834.78
2022-11-13T19:49:28.793Z,100835.63
2022-11-13T19:51:57.752Z,100837.13
2022-11-13T19:54:25.883Z,100831.06
2022-11-13T19:56:54.055Z,100833.81
2022-11-13T19:59:22.096Z,100833.47
2022-11-13T20:01:50.974Z,100826.78
2022-11-13T20:04:20.618Z,100837.63
2022-11-13T20:06:48.892Z,100827.69
2022-11-13T20:09:17.406Z,100830.22
2022-11-13T20:11:45.919Z,100821.72
2022-11-13T20:14:14.965Z,100831.91
2022-11-13T20:16:43.381Z,100818.22
2022-11-13T20:19:11.579Z,100819.81
2022-11-13T20:21:41.363Z,100815.34
2022-11-13T20:24:11.595Z,100821.94
2022-11-13T20:26:39.585Z,100808.34
2022-11-13T20:29:07.723Z,100809.47
2022-11-13T20:31:36.094Z,100807.09
2022-11-13T20:34:04.126Z,100810.72
2022-11-13T20:36:32.138Z,100811.31
2022-11-13T20:39:05.496Z,100805.31
2022-11-13T20:41:37.120Z,100800.88
2022-11-13T20:44:05.439Z,100795.59
2022-11-13T20:46:33.493Z,100794.91
2022-11-13T20:49:01.879Z,100795.59
2022-11-13T20:51:30.548Z,100798.13
2022-11-13T20:53:58.862Z,100800.63
2022-11-13T20:56:28.761Z,100791.84
2022-11-13T20:58:57.231Z,100788.13
2022-11-13T21:01:27.340Z,100791.94
2022-11-13T21:03:56.087Z,100793.53
2022-11-13T21:06:26.033Z,100791.25
2022-11-13T21:08:56.421Z,100794.03
2022-11-13T21:11:26.591Z,100792.91
2022-11-13T21:13:57.612Z,100791.41
2022-11-13T21:16:27.751Z,100791.94
2022-11-13T21:18:56.887Z,100788.34
2022-11-13T21:21:26.418Z,100796.44
2022-11-13T21:23:57.358Z,100804.91
2022-11-13T21:26:25.620Z,100809.72
2022-11-13T21:28:56.842Z,100801.00
2022-11-13T21:31:24.978Z,100806.53
2022-11-13T21:33:53.967Z,100805.50
2022-11-13T21:36:23.774Z,100812.91
2022-11-13T21:38:53.551Z,100813.91
2022-11-13T21:41:23.416Z,100820.47
2022-11-13T21:43:53.120Z,100810.06
2022-11-13T21:46:24.036Z,100808.91
2022-11-13T21:48:58.889Z,100811.50
2022-11-13T21:51:27.261Z,100826.28
2022-11-13T21:53:55.357Z,100822.88
2022-11-13T21:56:23.799Z,100826.63
2022-11-13T21:58:52.048Z,100832.03
2022-11-13T22:01:20.425Z,100825.66
2022-11-13T22:03:50.222Z,100816.69
2022-11-13T22:06:21.296Z,100813.91
2022-11-13T22:08:56.460Z,100820.78
2022-11-13T22:11:25.221Z,100818.06
2022-11-13T22:13:53.907Z,100815.84
2022-11-13T22:16:22.761Z,100809.63
2022-11-13T22:18:55.718Z,100805.16
2022-11-13T22:21:24.787Z,100798.31
2022-11-13T22:23:53.526Z,100788.03
2022-11-13T22:26:22.789Z,100789.44
2022-11-13T22:28:51.637Z,100787.19
2022-11-13T22:31:22.268Z,100785.59
2022-11-13T22:33:54.875Z,100772.63
2022-11-13T22:36:27.485Z,100775.63
2022-11-13T22:38:56.283Z,100771.03
2022-11-13T22:41:27.835Z,100760.22
2022-11-13T22:43:59.688Z,100756.75
2022-11-13T22:46:29.507Z,100753.06
2022-11-13T22:48:59.777Z,100749.53
2022-11-13T22:51:30.767Z,100748.34
2022-11-13T22:53:59.957Z,100741.03
2022-11-13T22:56:30.054Z,100741.63
2022-11-13T22:59:00.794Z,100738.88
2022-11-13T23:01:30.869Z,100747.09
2022-11-13T23:04:01.914Z,100743.19
2022-11-13T23:06:34.038Z,100745.06
2022-11-13T23:09:02.883Z,100746.91
2022-11-13T23:11:33.652Z,100754.16
2022-11-13T23:14:04.246Z,100752.13
2022-11-13T23:16:34.204Z,100753.63
2022-11-13T23:19:03.962Z,100748.94
2022-11-13T23:21:33.817Z,100749.88
2022-11-13T23:24:01.855Z,100747.28
2022-11-13T23:26:30.249Z,100748.31
2022-11-13T23:28:58.711Z,100744.97
2022-11-13T23:31:26.785Z,100738.47
2022-11-13T23:33:54.800Z,100742.34
2022-11-13T23:36:22.760Z,100746.50
2022-11-13T23:38:52.147Z,100742.44
2022-11-13T23:41:20.197Z,100740.69
2022-11-13T23:44:07.657Z,100749.34
2022-11-13T23:46:36.315Z,100746.28
2022-11-13T23:49:04.339Z,100740.50
2022-11-13T23:51:33.080Z,100738.06
2022-11-13T23:54:03.054Z,100745.22
2022-11-13T23:56:31.091Z,100735.22
2022-11-13T23:58:59.112Z,100735.53
